sensor_id;sensor_type;location;lat;lon;timestamp;P1;durP1;ratioP1;P2;durP2;ratioP2
2658;SDS011;1339;53.304;10.406;2023-03-12T00:01:08;5.47;;;3.55;;
2658;SDS011;1339;53.304;10.406;2023-03-12T00:03:36;4.57;;;3.35;;
2658;SDS011;1339;53.304;10.406;2023-03-12T00:06:04;7.50;;;3.85;;
2658;SDS011;1339;53.304;10.406;2023-03-12T00:08:31;4.43;;;3.38;;
2658;SDS011;1339;53.304;10.406;2023-03-12T00:10:58;6.00;;;4.15;;
2658;SDS011;1339;53.304;10.406;2023-03-12T00:13:25;5.95;;;3.30;;
2658;SDS011;1339;53.304;10.406;2023-03-12T00:15:52;3.88;;;3.58;;
2658;SDS011;1339;53.304;10.406;2023-03-12T00:18:19;3.53;;;3.22;;
2658;SDS011;1339;53.304;10.406;2023-03-12T00:20:53;4.85;;;4.35;;
2658;SDS011;1339;53.304;10.406;2023-03-12T00:23:20;4.25;;;3.67;;
2658;SDS011;1339;53.304;10.406;2023-03-12T00:25:47;4.60;;;3.75;;
2658;SDS011;1339;53.304;10.406;2023-03-12T00:28:14;4.68;;;4.22;;
2658;SDS011;1339;53.304;10.406;2023-03-12T00:30:41;5.57;;;3.35;;
2658;SDS011;1339;53.304;10.406;2023-03-12T00:33:08;3.95;;;3.65;;
2658;SDS011;1339;53.304;10.406;2023-03-12T00:35:36;4.63;;;3.55;;
2658;SDS011;1339;53.304;10.406;2023-03-12T00:38:04;3.85;;;3.50;;
2658;SDS011;1339;53.304;10.406;2023-03-12T00:40:31;5.88;;;3.58;;
2658;SDS011;1339;53.304;10.406;2023-03-12T00:42:58;5.50;;;3.83;;
2658;SDS011;1339;53.304;10.406;2023-03-12T00:45:25;9.02;;;3.60;;
2658;SDS011;1339;53.304;10.406;2023-03-12T00:47:52;4.60;;;3.97;;
2658;SDS011;1339;53.304;10.406;2023-03-12T00:50:19;5.50;;;3.70;;
2658;SDS011;1339;53.304;10.406;2023-03-12T00:52:46;4.35;;;3.95;;
2658;SDS011;1339;53.304;10.406;2023-03-12T00:55:15;3.55;;;2.80;;
2658;SDS011;1339;53.304;10.406;2023-03-12T00:57:42;7.28;;;3.90;;
2658;SDS011;1339;53.304;10.406;2023-03-12T01:00:09;3.90;;;3.53;;
2658;SDS011;1339;53.304;10.406;2023-03-12T01:02:36;5.60;;;3.40;;
2658;SDS011;1339;53.304;10.406;2023-03-12T01:05:04;3.97;;;3.17;;
2658;SDS011;1339;53.304;10.406;2023-03-12T01:07:31;4.90;;;3.30;;
2658;SDS011;1339;53.304;10.406;2023-03-12T01:09:58;4.10;;;3.67;;
2658;SDS011;1339;53.304;10.406;2023-03-12T01:12:26;6.75;;;3.90;;
2658;SDS011;1339;53.304;10.406;2023-03-12T01:14:53;6.32;;;4.13;;
2658;SDS011;1339;53.304;10.406;2023-03-12T01:17:20;6.00;;;4.28;;
2658;SDS011;1339;53.304;10.406;2023-03-12T01:19:47;7.38;;;5.13;;
2658;SDS011;1339;53.304;10.406;2023-03-12T01:22:14;3.63;;;3.33;;
2658;SDS011;1339;53.304;10.406;2023-03-12T01:24:41;4.43;;;3.90;;
2658;SDS011;1339;53.304;10.406;2023-03-12T01:27:08;5.82;;;3.97;;
2658;SDS011;1339;53.304;10.406;2023-03-12T01:29:36;5.97;;;4.18;;
2658;SDS011;1339;53.304;10.406;2023-03-12T01:32:04;4.60;;;3.60;;
2658;SDS011;1339;53.304;10.406;2023-03-12T01:34:31;5.05;;;4.18;;
2658;SDS011;1339;53.304;10.406;2023-03-12T01:36:59;4.30;;;4.00;;
2658;SDS011;1339;53.304;10.406;2023-03-12T01:39:26;6.63;;;4.85;;
2658;SDS011;1339;53.304;10.406;2023-03-12T01:41:53;4.57;;;3.97;;
2658;SDS011;1339;53.304;10.406;2023-03-12T01:44:20;6.30;;;4.38;;
2658;SDS011;1339;53.304;10.406;2023-03-12T01:46:48;5.65;;;4.18;;
2658;SDS011;1339;53.304;10.406;2023-03-12T01:49:16;7.72;;;4.10;;
2658;SDS011;1339;53.304;10.406;2023-03-12T01:51:44;15.63;;;5.60;;
2658;SDS011;1339;53.304;10.406;2023-03-12T01:54:13;6.82;;;4.10;;
2658;SDS011;1339;53.304;10.406;2023-03-12T01:56:41;5.72;;;4.45;;
2658;SDS011;1339;53.304;10.406;2023-03-12T01:59:10;5.80;;;4.18;;
2658;SDS011;1339;53.304;10.406;2023-03-12T02:01:38;6.15;;;4.78;;
2658;SDS011;1339;53.304;10.406;2023-03-12T02:04:07;6.03;;;5.03;;
2658;SDS011;1339;53.304;10.406;2023-03-12T02:06:36;11.48;;;5.10;;
2658;SDS011;1339;53.304;10.406;2023-03-12T02:09:04;5.57;;;4.43;;
2658;SDS011;1339;53.304;10.406;2023-03-12T02:11:31;9.85;;;4.43;;
2658;SDS011;1339;53.304;10.406;2023-03-12T02:13:58;6.50;;;5.55;;
2658;SDS011;1339;53.304;10.406;2023-03-12T02:16:25;5.05;;;4.10;;
2658;SDS011;1339;53.304;10.406;2023-03-12T02:18:52;6.05;;;4.95;;
2658;SDS011;1339;53.304;10.406;2023-03-12T02:21:22;8.77;;;5.50;;
2658;SDS011;1339;53.304;10.406;2023-03-12T02:23:51;5.80;;;4.05;;
2658;SDS011;1339;53.304;10.406;2023-03-12T02:26:22;9.43;;;4.45;;
2658;SDS011;1339;53.304;10.406;2023-03-12T02:28:49;7.95;;;3.90;;
2658;SDS011;1339;53.304;10.406;2023-03-12T02:31:17;8.55;;;3.92;;
2658;SDS011;1339;53.304;10.406;2023-03-12T02:33:45;5.93;;;4.30;;
2658;SDS011;1339;53.304;10.406;2023-03-12T02:36:12;7.60;;;4.45;;
2658;SDS011;1339;53.304;10.406;2023-03-12T02:38:40;5.47;;;4.45;;
2658;SDS011;1339;53.304;10.406;2023-03-12T02:41:17;5.95;;;3.65;;
2658;SDS011;1339;53.304;10.406;2023-03-12T02:43:48;4.20;;;3.80;;
2658;SDS011;1339;53.304;10.406;2023-03-12T02:46:15;4.85;;;4.38;;
2658;SDS011;1339;53.304;10.406;2023-03-12T02:48:43;6.10;;;4.80;;
2658;SDS011;1339;53.304;10.406;2023-03-12T02:51:10;9.60;;;4.63;;
2658;SDS011;1339;53.304;10.406;2023-03-12T02:53:36;5.22;;;4.72;;
2658;SDS011;1339;53.304;10.406;2023-03-12T02:56:04;6.28;;;4.97;;
2658;SDS011;1339;53.304;10.406;2023-03-12T02:58:31;5.47;;;4.28;;
2658;SDS011;1339;53.304;10.406;2023-03-12T03:00:59;5.65;;;4.75;;
2658;SDS011;1339;53.304;10.406;2023-03-12T03:03:26;5.40;;;4.90;;
2658;SDS011;1339;53.304;10.406;2023-03-12T03:05:53;6.28;;;5.57;;
2658;SDS011;1339;53.304;10.406;2023-03-12T03:08:20;4.90;;;4.32;;
2658;SDS011;1339;53.304;10.406;2023-03-12T03:10:49;5.55;;;4.55;;
2658;SDS011;1339;53.304;10.406;2023-03-12T03:13:16;6.88;;;4.88;;
2658;SDS011;1339;53.304;10.406;2023-03-12T03:15:43;6.15;;;5.10;;
2658;SDS011;1339;53.304;10.406;2023-03-12T03:18:11;7.55;;;4.50;;
2658;SDS011;1339;53.304;10.406;2023-03-12T03:20:38;5.30;;;4.80;;
2658;SDS011;1339;53.304;10.406;2023-03-12T03:23:07;5.43;;;4.72;;
2658;SDS011;1339;53.304;10.406;2023-03-12T03:25:34;5.93;;;5.43;;
2658;SDS011;1339;53.304;10.406;2023-03-12T03:28:01;5.05;;;4.57;;
2658;SDS011;1339;53.304;10.406;2023-03-12T03:30:28;10.25;;;6.30;;
2658;SDS011;1339;53.304;10.406;2023-03-12T03:32:55;6.00;;;5.40;;
2658;SDS011;1339;53.304;10.406;2023-03-12T03:35:23;8.35;;;5.43;;
2658;SDS011;1339;53.304;10.406;2023-03-12T03:37:50;7.45;;;5.22;;
2658;SDS011;1339;53.304;10.406;2023-03-12T03:40:17;9.82;;;5.43;;
2658;SDS011;1339;53.304;10.406;2023-03-12T03:42:44;6.95;;;5.43;;
2658;SDS011;1339;53.304;10.406;2023-03-12T03:45:11;5.07;;;4.57;;
2658;SDS011;1339;53.304;10.406;2023-03-12T03:47:38;7.70;;;5.13;;
2658;SDS011;1339;53.304;10.406;2023-03-12T03:50:05;5.88;;;5.35;;
2658;SDS011;1339;53.304;10.406;2023-03-12T03:52:34;6.43;;;5.82;;
2658;SDS011;1339;53.304;10.406;2023-03-12T03:55:00;5.45;;;4.95;;
2658;SDS011;1339;53.304;10.406;2023-03-12T03:57:27;5.18;;;4.60;;
2658;SDS011;1339;53.304;10.406;2023-03-12T03:59:55;6.40;;;5.25;;
2658;SDS011;1339;53.304;10.406;2023-03-12T04:02:24;6.47;;;4.63;;
2658;SDS011;1339;53.304;10.406;2023-03-12T04:04:51;7.43;;;5.72;;
2658;SDS011;1339;53.304;10.406;2023-03-12T04:07:18;5.20;;;4.70;;
2658;SDS011;1339;53.304;10.406;2023-03-12T04:09:46;6.93;;;5.15;;
2658;SDS011;1339;53.304;10.406;2023-03-12T04:12:15;5.35;;;4.85;;
2658;SDS011;1339;53.304;10.406;2023-03-12T04:14:42;5.03;;;4.60;;
2658;SDS011;1339;53.304;10.406;2023-03-12T04:17:09;5.72;;;4.95;;
2658;SDS011;1339;53.304;10.406;2023-03-12T04:19:36;5.47;;;4.93;;
2658;SDS011;1339;53.304;10.406;2023-03-12T04:22:03;6.30;;;5.70;;
2658;SDS011;1339;53.304;10.406;2023-03-12T04:24:30;5.80;;;5.30;;
2658;SDS011;1339;53.304;10.406;2023-03-12T04:26:58;7.30;;;6.00;;
2658;SDS011;1339;53.304;10.406;2023-03-12T04:29:25;5.50;;;4.85;;
2658;SDS011;1339;53.304;10.406;2023-03-12T04:31:52;5.57;;;5.07;;
2658;SDS011;1339;53.304;10.406;2023-03-12T04:34:19;7.03;;;4.88;;
2658;SDS011;1339;53.304;10.406;2023-03-12T04:36:47;5.15;;;4.75;;
2658;SDS011;1339;53.304;10.406;2023-03-12T04:39:15;6.63;;;5.30;;
2658;SDS011;1339;53.304;10.406;2023-03-12T04:41:42;7.20;;;4.97;;
2658;SDS011;1339;53.304;10.406;2023-03-12T04:44:10;6.82;;;5.40;;
2658;SDS011;1339;53.304;10.406;2023-03-12T04:46:37;4.90;;;4.40;;
2658;SDS011;1339;53.304;10.406;2023-03-12T04:49:04;5.10;;;4.63;;
2658;SDS011;1339;53.304;10.406;2023-03-12T04:51:31;6.88;;;4.95;;
2658;SDS011;1339;53.304;10.406;2023-03-12T04:53:58;6.55;;;5.32;;
2658;SDS011;1339;53.304;10.406;2023-03-12T04:56:25;7.53;;;5.57;;
2658;SDS011;1339;53.304;10.406;2023-03-12T04:58:53;5.47;;;4.55;;
2658;SDS011;1339;53.304;10.406;2023-03-12T05:01:22;11.38;;;4.88;;
2658;SDS011;1339;53.304;10.406;2023-03-12T05:03:50;7.60;;;5.80;;
2658;SDS011;1339;53.304;10.406;2023-03-12T05:06:17;7.05;;;5.53;;
2658;SDS011;1339;53.304;10.406;2023-03-12T05:08:44;7.38;;;5.40;;
2658;SDS011;1339;53.304;10.406;2023-03-12T05:11:11;9.82;;;6.95;;
2658;SDS011;1339;53.304;10.406;2023-03-12T05:13:38;8.18;;;7.00;;
2658;SDS011;1339;53.304;10.406;2023-03-12T05:16:05;13.82;;;7.00;;
2658;SDS011;1339;53.304;10.406;2023-03-12T05:18:33;7.90;;;6.25;;
2658;SDS011;1339;53.304;10.406;2023-03-12T05:21:01;8.68;;;6.88;;
2658;SDS011;1339;53.304;10.406;2023-03-12T05:23:29;13.02;;;7.75;;
2658;SDS011;1339;53.304;10.406;2023-03-12T05:25:56;8.57;;;6.57;;
2658;SDS011;1339;53.304;10.406;2023-03-12T05:28:23;10.07;;;7.45;;
2658;SDS011;1339;53.304;10.406;2023-03-12T05:30:52;8.88;;;7.03;;
2658;SDS011;1339;53.304;10.406;2023-03-12T05:33:19;9.00;;;7.25;;
2658;SDS011;1339;53.304;10.406;2023-03-12T05:35:47;8.85;;;6.90;;
2658;SDS011;1339;53.304;10.406;2023-03-12T05:38:14;8.23;;;6.70;;
2658;SDS011;1339;53.304;10.406;2023-03-12T05:40:41;10.43;;;7.50;;
2658;SDS011;1339;53.304;10.406;2023-03-12T05:43:08;9.10;;;7.10;;
2658;SDS011;1339;53.304;10.406;2023-03-12T05:45:35;9.52;;;6.65;;
2658;SDS011;1339;53.304;10.406;2023-03-12T05:48:02;9.18;;;7.47;;
2658;SDS011;1339;53.304;10.406;2023-03-12T05:50:29;8.45;;;7.25;;
2658;SDS011;1339;53.304;10.406;2023-03-12T05:52:58;9.13;;;6.38;;
2658;SDS011;1339;53.304;10.406;2023-03-12T05:55:25;9.40;;;7.50;;
2658;SDS011;1339;53.304;10.406;2023-03-12T05:57:52;9.45;;;8.50;;
2658;SDS011;1339;53.304;10.406;2023-03-12T06:00:19;7.20;;;6.18;;
2658;SDS011;1339;53.304;10.406;2023-03-12T06:02:46;7.78;;;6.95;;
2658;SDS011;1339;53.304;10.406;2023-03-12T06:05:13;12.00;;;7.20;;
2658;SDS011;1339;53.304;10.406;2023-03-12T06:07:40;8.00;;;7.20;;
2658;SDS011;1339;53.304;10.406;2023-03-12T06:10:09;9.25;;;6.68;;
2658;SDS011;1339;53.304;10.406;2023-03-12T06:12:36;7.97;;;7.15;;
2658;SDS011;1339;53.304;10.406;2023-03-12T06:15:03;7.00;;;6.30;;
2658;SDS011;1339;53.304;10.406;2023-03-12T06:17:30;7.82;;;6.88;;
2658;SDS011;1339;53.304;10.406;2023-03-12T06:19:57;11.88;;;5.88;;
2658;SDS011;1339;53.304;10.406;2023-03-12T06:22:24;12.18;;;6.30;;
2658;SDS011;1339;53.304;10.406;2023-03-12T06:24:52;8.38;;;6.38;;
2658;SDS011;1339;53.304;10.406;2023-03-12T06:27:21;6.47;;;5.88;;
2658;SDS011;1339;53.304;10.406;2023-03-12T06:29:48;5.88;;;5.38;;
2658;SDS011;1339;53.304;10.406;2023-03-12T06:32:15;9.93;;;5.90;;
2658;SDS011;1339;53.304;10.406;2023-03-12T06:34:43;7.20;;;5.93;;
2658;SDS011;1339;53.304;10.406;2023-03-12T06:37:10;5.97;;;5.38;;
2658;SDS011;1339;53.304;10.406;2023-03-12T06:39:37;12.75;;;6.13;;
2658;SDS011;1339;53.304;10.406;2023-03-12T06:42:04;6.82;;;6.13;;
2658;SDS011;1339;53.304;10.406;2023-03-12T06:44:32;6.22;;;5.63;;
2658;SDS011;1339;53.304;10.406;2023-03-12T06:46:59;6.50;;;5.82;;
2658;SDS011;1339;53.304;10.406;2023-03-12T06:49:26;8.50;;;5.90;;
2658;SDS011;1339;53.304;10.406;2023-03-12T06:51:56;8.05;;;5.38;;
2658;SDS011;1339;53.304;10.406;2023-03-12T06:54:23;6.05;;;5.50;;
2658;SDS011;1339;53.304;10.406;2023-03-12T06:56:50;6.65;;;6.15;;
2658;SDS011;1339;53.304;10.406;2023-03-12T06:59:17;5.40;;;4.90;;
2658;SDS011;1339;53.304;10.406;2023-03-12T07:01:47;12.50;;;6.43;;
2658;SDS011;1339;53.304;10.406;2023-03-12T07:04:13;5.68;;;5.18;;
2658;SDS011;1339;53.304;10.406;2023-03-12T07:06:41;5.75;;;5.25;;
2658;SDS011;1339;53.304;10.406;2023-03-12T07:09:07;5.57;;;5.07;;
2658;SDS011;1339;53.304;10.406;2023-03-12T07:11:34;5.65;;;5.15;;
2658;SDS011;1339;53.304;10.406;2023-03-12T07:14:02;8.05;;;6.38;;
2658;SDS011;1339;53.304;10.406;2023-03-12T07:16:29;9.48;;;5.15;;
2658;SDS011;1339;53.304;10.406;2023-03-12T07:18:57;4.68;;;4.28;;
2658;SDS011;1339;53.304;10.406;2023-03-12T07:21:24;5.75;;;5.15;;
2658;SDS011;1339;53.304;10.406;2023-03-12T07:23:52;4.57;;;4.22;;
2658;SDS011;1339;53.304;10.406;2023-03-12T07:26:19;6.07;;;4.80;;
2658;SDS011;1339;53.304;10.406;2023-03-12T07:28:46;5.72;;;4.97;;
2658;SDS011;1339;53.304;10.406;2023-03-12T07:31:13;5.88;;;5.28;;
2658;SDS011;1339;53.304;10.406;2023-03-12T07:33:40;6.80;;;5.18;;
2658;SDS011;1339;53.304;10.406;2023-03-12T07:36:08;4.65;;;4.25;;
2658;SDS011;1339;53.304;10.406;2023-03-12T07:38:35;5.65;;;5.15;;
2658;SDS011;1339;53.304;10.406;2023-03-12T07:41:03;6.32;;;4.80;;
2658;SDS011;1339;53.304;10.406;2023-03-12T07:43:30;4.28;;;3.95;;
2658;SDS011;1339;53.304;10.406;2023-03-12T07:45:56;7.00;;;5.30;;
2658;SDS011;1339;53.304;10.406;2023-03-12T07:48:23;9.77;;;5.72;;
2658;SDS011;1339;53.304;10.406;2023-03-12T07:50:50;4.47;;;4.07;;
2658;SDS011;1339;53.304;10.406;2023-03-12T07:53:19;5.55;;;4.93;;
2658;SDS011;1339;53.304;10.406;2023-03-12T07:55:46;6.10;;;4.72;;
2658;SDS011;1339;53.304;10.406;2023-03-12T07:58:13;8.05;;;4.30;;
2658;SDS011;1339;53.304;10.406;2023-03-12T08:00:40;7.43;;;4.65;;
2658;SDS011;1339;53.304;10.406;2023-03-12T08:03:07;7.70;;;4.43;;
2658;SDS011;1339;53.304;10.406;2023-03-12T08:05:34;5.97;;;5.35;;
2658;SDS011;1339;53.304;10.406;2023-03-12T08:08:01;7.78;;;4.25;;
2658;SDS011;1339;53.304;10.406;2023-03-12T08:10:29;4.38;;;3.97;;
2658;SDS011;1339;53.304;10.406;2023-03-12T08:12:56;6.43;;;5.00;;
2658;SDS011;1339;53.304;10.406;2023-03-12T08:15:23;6.38;;;5.10;;
2658;SDS011;1339;53.304;10.406;2023-03-12T08:17:50;5.35;;;4.47;;
2658;SDS011;1339;53.304;10.406;2023-03-12T08:20:17;6.50;;;4.60;;
2658;SDS011;1339;53.304;10.406;2023-03-12T08:22:44;3.90;;;3.58;;
2658;SDS011;1339;53.304;10.406;2023-03-12T08:25:11;8.95;;;4.43;;
2658;SDS011;1339;53.304;10.406;2023-03-12T08:27:40;7.03;;;3.83;;
2658;SDS011;1339;53.304;10.406;2023-03-12T08:30:07;6.78;;;4.30;;
2658;SDS011;1339;53.304;10.406;2023-03-12T08:32:35;4.75;;;4.15;;
2658;SDS011;1339;53.304;10.406;2023-03-12T08:35:02;5.93;;;4.15;;
2658;SDS011;1339;53.304;10.406;2023-03-12T08:37:29;9.00;;;4.90;;
2658;SDS011;1339;53.304;10.406;2023-03-12T08:39:57;6.35;;;4.38;;
2658;SDS011;1339;53.304;10.406;2023-03-12T08:42:24;4.75;;;4.43;;
2658;SDS011;1339;53.304;10.406;2023-03-12T08:44:52;4.35;;;3.95;;
2658;SDS011;1339;53.304;10.406;2023-03-12T08:47:19;6.00;;;4.60;;
2658;SDS011;1339;53.304;10.406;2023-03-12T08:49:46;5.95;;;4.05;;
2658;SDS011;1339;53.304;10.406;2023-03-12T08:52:13;4.63;;;4.13;;
2658;SDS011;1339;53.304;10.406;2023-03-12T08:54:40;6.40;;;3.70;;
2658;SDS011;1339;53.304;10.406;2023-03-12T08:57:07;4.68;;;3.92;;
2658;SDS011;1339;53.304;10.406;2023-03-12T08:59:34;5.25;;;4.07;;
2658;SDS011;1339;53.304;10.406;2023-03-12T09:02:03;4.03;;;3.70;;
2658;SDS011;1339;53.304;10.406;2023-03-12T09:04:30;4.43;;;3.72;;
2658;SDS011;1339;53.304;10.406;2023-03-12T09:06:57;3.90;;;3.60;;
2658;SDS011;1339;53.304;10.406;2023-03-12T09:09:24;4.95;;;3.63;;
2658;SDS011;1339;53.304;10.406;2023-03-12T09:11:51;5.03;;;4.30;;
2658;SDS011;1339;53.304;10.406;2023-03-12T09:14:18;6.50;;;4.10;;
2658;SDS011;1339;53.304;10.406;2023-03-12T09:16:45;6.90;;;3.95;;
2658;SDS011;1339;53.304;10.406;2023-03-12T09:19:13;5.22;;;4.80;;
2658;SDS011;1339;53.304;10.406;2023-03-12T09:21:40;7.15;;;3.40;;
2658;SDS011;1339;53.304;10.406;2023-03-12T09:24:08;4.28;;;3.88;;
2658;SDS011;1339;53.304;10.406;2023-03-12T09:26:35;4.68;;;4.20;;
2658;SDS011;1339;53.304;10.406;2023-03-12T09:29:02;4.00;;;3.53;;
2658;SDS011;1339;53.304;10.406;2023-03-12T09:31:29;5.30;;;4.35;;
2658;SDS011;1339;53.304;10.406;2023-03-12T09:33:56;6.30;;;4.00;;
2658;SDS011;1339;53.304;10.406;2023-03-12T09:36:24;9.60;;;5.90;;
2658;SDS011;1339;53.304;10.406;2023-03-12T09:38:51;12.23;;;4.72;;
2658;SDS011;1339;53.304;10.406;2023-03-12T09:41:20;4.15;;;3.63;;
2658;SDS011;1339;53.304;10.406;2023-03-12T09:43:48;4.63;;;3.55;;
2658;SDS011;1339;53.304;10.406;2023-03-12T09:46:19;4.13;;;3.15;;
2658;SDS011;1339;53.304;10.406;2023-03-12T09:48:48;5.80;;;3.80;;
2658;SDS011;1339;53.304;10.406;2023-03-12T09:51:16;5.63;;;4.05;;
2658;SDS011;1339;53.304;10.406;2023-03-12T09:53:45;5.00;;;4.05;;
2658;SDS011;1339;53.304;10.406;2023-03-12T09:56:13;6.22;;;3.10;;
2658;SDS011;1339;53.304;10.406;2023-03-12T09:58:41;6.00;;;5.40;;
2658;SDS011;1339;53.304;10.406;2023-03-12T10:01:16;6.95;;;3.22;;
2658;SDS011;1339;53.304;10.406;2023-03-12T10:03:49;7.57;;;5.07;;
2658;SDS011;1339;53.304;10.406;2023-03-12T10:06:18;4.70;;;3.45;;
2658;SDS011;1339;53.304;10.406;2023-03-12T10:08:49;4.68;;;3.88;;
2658;SDS011;1339;53.304;10.406;2023-03-12T10:11:24;5.18;;;3.03;;
2658;SDS011;1339;53.304;10.406;2023-03-12T10:13:58;4.00;;;3.70;;
2658;SDS011;1339;53.304;10.406;2023-03-12T10:16:31;4.38;;;3.15;;
2658;SDS011;1339;53.304;10.406;2023-03-12T10:19:04;3.72;;;3.15;;
2658;SDS011;1339;53.304;10.406;2023-03-12T10:21:34;8.10;;;3.70;;
2658;SDS011;1339;53.304;10.406;2023-03-12T10:24:11;4.35;;;3.40;;
2658;SDS011;1339;53.304;10.406;2023-03-12T10:26:39;3.78;;;3.47;;
2658;SDS011;1339;53.304;10.406;2023-03-12T10:29:09;3.28;;;2.95;;
2658;SDS011;1339;53.304;10.406;2023-03-12T10:31:40;5.25;;;3.33;;
2658;SDS011;1339;53.304;10.406;2023-03-12T10:34:13;5.82;;;4.18;;
2658;SDS011;1339;53.304;10.406;2023-03-12T10:36:41;3.10;;;2.78;;
2658;SDS011;1339;53.304;10.406;2023-03-12T10:39:12;4.05;;;2.72;;
2658;SDS011;1339;53.304;10.406;2023-03-12T10:41:40;4.20;;;3.50;;
2658;SDS011;1339;53.304;10.406;2023-03-12T10:44:07;4.47;;;3.67;;
2658;SDS011;1339;53.304;10.406;2023-03-12T10:46:41;4.22;;;3.03;;
2658;SDS011;1339;53.304;10.406;2023-03-12T10:49:25;3.75;;;3.38;;
2658;SDS011;1339;53.304;10.406;2023-03-12T10:51:53;7.28;;;3.15;;
2658;SDS011;1339;53.304;10.406;2023-03-12T10:54:25;3.50;;;2.70;;
2658;SDS011;1339;53.304;10.406;2023-03-12T10:56:52;4.45;;;3.10;;
2658;SDS011;1339;53.304;10.406;2023-03-12T10:59:19;4.95;;;3.38;;
2658;SDS011;1339;53.304;10.406;2023-03-12T11:01:47;3.95;;;2.95;;
2658;SDS011;1339;53.304;10.406;2023-03-12T11:04:16;3.22;;;2.92;;
2658;SDS011;1339;53.304;10.406;2023-03-12T11:06:45;3.97;;;2.70;;
2658;SDS011;1339;53.304;10.406;2023-03-12T11:09:29;3.55;;;2.90;;
2658;SDS011;1339;53.304;10.406;2023-03-12T11:11:56;2.33;;;2.00;;
2658;SDS011;1339;53.304;10.406;2023-03-12T11:14:24;2.78;;;2.45;;
2658;SDS011;1339;53.304;10.406;2023-03-12T11:16:52;4.65;;;3.20;;
2658;SDS011;1339;53.304;10.406;2023-03-12T11:19:26;4.05;;;2.60;;
2658;SDS011;1339;53.304;10.406;2023-03-12T11:21:54;3.33;;;2.88;;
2658;SDS011;1339;53.304;10.406;2023-03-12T11:24:21;3.28;;;2.97;;
2658;SDS011;1339;53.304;10.406;2023-03-12T11:26:50;3.30;;;3.00;;
2658;SDS011;1339;53.304;10.406;2023-03-12T11:29:21;3.38;;;2.83;;
2658;SDS011;1339;53.304;10.406;2023-03-12T11:31:52;3.63;;;2.13;;
2658;SDS011;1339;53.304;10.406;2023-03-12T11:34:23;2.92;;;2.70;;
2658;SDS011;1339;53.304;10.406;2023-03-12T11:36:54;5.55;;;2.45;;
2658;SDS011;1339;53.304;10.406;2023-03-12T11:39:25;3.17;;;2.97;;
2658;SDS011;1339;53.304;10.406;2023-03-12T11:42:01;4.90;;;3.10;;
2658;SDS011;1339;53.304;10.406;2023-03-12T11:44:32;3.45;;;2.70;;
2658;SDS011;1339;53.304;10.406;2023-03-12T11:47:13;2.80;;;2.58;;
2658;SDS011;1339;53.304;10.406;2023-03-12T11:52:35;4.30;;;2.75;;
2658;SDS011;1339;53.304;10.406;2023-03-12T11:55:11;2.50;;;2.30;;
2658;SDS011;1339;53.304;10.406;2023-03-12T11:57:46;3.15;;;2.70;;
2658;SDS011;1339;53.304;10.406;2023-03-12T12:00:15;2.67;;;1.92;;
2658;SDS011;1339;53.304;10.406;2023-03-12T12:02:54;6.95;;;3.40;;
2658;SDS011;1339;53.304;10.406;2023-03-12T12:05:32;4.13;;;2.83;;
2658;SDS011;1339;53.304;10.406;2023-03-12T12:08:05;2.95;;;2.63;;
2658;SDS011;1339;53.304;10.406;2023-03-12T12:10:36;2.85;;;2.38;;
2658;SDS011;1339;53.304;10.406;2023-03-12T12:13:09;3.50;;;2.15;;
2658;SDS011;1339;53.304;10.406;2023-03-12T12:15:38;5.65;;;4.15;;
2658;SDS011;1339;53.304;10.406;2023-03-12T12:18:13;3.33;;;2.53;;
2658;SDS011;1339;53.304;10.406;2023-03-12T12:20:45;2.30;;;2.20;;
2658;SDS011;1339;53.304;10.406;2023-03-12T12:23:15;2.55;;;1.95;;
2658;SDS011;1339;53.304;10.406;2023-03-12T12:25:55;2.85;;;1.80;;
2658;SDS011;1339;53.304;10.406;2023-03-12T12:28:35;3.33;;;1.90;;
2658;SDS011;1339;53.304;10.406;2023-03-12T12:31:07;2.05;;;1.95;;
2658;SDS011;1339;53.304;10.406;2023-03-12T12:33:43;3.33;;;1.90;;
2658;SDS011;1339;53.304;10.406;2023-03-12T12:36:14;1.98;;;1.85;;
2658;SDS011;1339;53.304;10.406;2023-03-12T12:38:43;2.92;;;1.90;;
2658;SDS011;1339;53.304;10.406;2023-03-12T12:41:11;4.10;;;2.10;;
2658;SDS011;1339;53.304;10.406;2023-03-12T12:43:41;3.92;;;2.05;;
2658;SDS011;1339;53.304;10.406;2023-03-12T12:46:11;4.35;;;2.58;;
2658;SDS011;1339;53.304;10.406;2023-03-12T12:48:40;3.75;;;2.00;;
2658;SDS011;1339;53.304;10.406;2023-03-12T12:51:09;2.85;;;2.05;;
2658;SDS011;1339;53.304;10.406;2023-03-12T12:53:39;2.67;;;1.58;;
2658;SDS011;1339;53.304;10.406;2023-03-12T12:56:10;4.05;;;1.70;;
2658;SDS011;1339;53.304;10.406;2023-03-12T12:58:45;3.45;;;1.98;;
2658;SDS011;1339;53.304;10.406;2023-03-12T13:01:16;2.97;;;1.70;;
2658;SDS011;1339;53.304;10.406;2023-03-12T13:03:43;3.30;;;1.65;;
2658;SDS011;1339;53.304;10.406;2023-03-12T13:06:11;3.95;;;2.15;;
2658;SDS011;1339;53.304;10.406;2023-03-12T13:11:25;2.22;;;1.92;;
2658;SDS011;1339;53.304;10.406;2023-03-12T13:16:37;2.90;;;2.05;;
2658;SDS011;1339;53.304;10.406;2023-03-12T13:19:07;2.50;;;1.90;;
2658;SDS011;1339;53.304;10.406;2023-03-12T13:21:49;3.92;;;2.05;;
2658;SDS011;1339;53.304;10.406;2023-03-12T13:24:21;3.80;;;2.08;;
2658;SDS011;1339;53.304;10.406;2023-03-12T13:26:51;2.22;;;1.90;;
2658;SDS011;1339;53.304;10.406;2023-03-12T13:29:20;3.00;;;1.60;;
2658;SDS011;1339;53.304;10.406;2023-03-12T13:31:49;2.63;;;2.22;;
2658;SDS011;1339;53.304;10.406;2023-03-12T13:34:30;1.70;;;1.60;;
2658;SDS011;1339;53.304;10.406;2023-03-12T13:36:58;1.92;;;1.70;;
2658;SDS011;1339;53.304;10.406;2023-03-12T13:39:29;2.40;;;2.20;;
2658;SDS011;1339;53.304;10.406;2023-03-12T13:41:57;4.13;;;1.83;;
2658;SDS011;1339;53.304;10.406;2023-03-12T13:44:31;2.30;;;2.10;;
2658;SDS011;1339;53.304;10.406;2023-03-12T13:47:04;3.10;;;2.35;;
2658;SDS011;1339;53.304;10.406;2023-03-12T13:49:43;2.17;;;1.95;;
2658;SDS011;1339;53.304;10.406;2023-03-12T13:52:19;1.42;;;1.33;;
2658;SDS011;1339;53.304;10.406;2023-03-12T13:54:48;5.50;;;2.10;;
2658;SDS011;1339;53.304;10.406;2023-03-12T13:57:24;3.05;;;2.50;;
2658;SDS011;1339;53.304;10.406;2023-03-12T13:59:52;2.30;;;2.05;;
2658;SDS011;1339;53.304;10.406;2023-03-12T14:02:22;1.88;;;1.50;;
2658;SDS011;1339;53.304;10.406;2023-03-12T14:04:51;3.33;;;2.25;;
2658;SDS011;1339;53.304;10.406;2023-03-12T14:10:10;4.20;;;2.40;;
2658;SDS011;1339;53.304;10.406;2023-03-12T14:12:40;2.35;;;2.17;;
2658;SDS011;1339;53.304;10.406;2023-03-12T14:15:12;4.32;;;2.40;;
2658;SDS011;1339;53.304;10.406;2023-03-12T14:17:43;2.65;;;2.08;;
2658;SDS011;1339;53.304;10.406;2023-03-12T14:20:11;2.20;;;2.00;;
2658;SDS011;1339;53.304;10.406;2023-03-12T14:22:41;3.95;;;2.10;;
2658;SDS011;1339;53.304;10.406;2023-03-12T14:25:11;6.00;;;2.30;;
2658;SDS011;1339;53.304;10.406;2023-03-12T14:27:39;5.80;;;3.50;;
2658;SDS011;1339;53.304;10.406;2023-03-12T14:30:10;3.13;;;2.58;;
2658;SDS011;1339;53.304;10.406;2023-03-12T14:32:37;4.47;;;3.00;;
2658;SDS011;1339;53.304;10.406;2023-03-12T14:35:13;4.47;;;2.78;;
2658;SDS011;1339;53.304;10.406;2023-03-12T14:37:43;3.60;;;3.30;;
2658;SDS011;1339;53.304;10.406;2023-03-12T14:40:17;4.22;;;2.72;;
2658;SDS011;1339;53.304;10.406;2023-03-12T14:42:45;3.10;;;2.90;;
2658;SDS011;1339;53.304;10.406;2023-03-12T14:45:13;6.72;;;3.67;;
2658;SDS011;1339;53.304;10.406;2023-03-12T14:47:43;3.53;;;3.22;;
2658;SDS011;1339;53.304;10.406;2023-03-12T14:50:16;3.65;;;3.35;;
2658;SDS011;1339;53.304;10.406;2023-03-12T14:52:44;2.85;;;2.60;;
2658;SDS011;1339;53.304;10.406;2023-03-12T14:55:12;5.10;;;3.50;;
2658;SDS011;1339;53.304;10.406;2023-03-12T14:57:39;5.10;;;3.40;;
2658;SDS011;1339;53.304;10.406;2023-03-12T15:00:13;3.47;;;3.17;;
2658;SDS011;1339;53.304;10.406;2023-03-12T15:02:41;4.32;;;3.30;;
2658;SDS011;1339;53.304;10.406;2023-03-12T15:05:13;3.67;;;3.40;;
2658;SDS011;1339;53.304;10.406;2023-03-12T15:07:43;5.13;;;3.67;;
2658;SDS011;1339;53.304;10.406;2023-03-12T15:10:16;3.03;;;2.83;;
2658;SDS011;1339;53.304;10.406;2023-03-12T15:12:43;3.90;;;3.60;;
2658;SDS011;1339;53.304;10.406;2023-03-12T15:15:15;4.53;;;3.33;;
2658;SDS011;1339;53.304;10.406;2023-03-12T15:17:47;4.30;;;3.20;;
2658;SDS011;1339;53.304;10.406;2023-03-12T15:20:15;4.18;;;3.65;;